sensor_id;sensor_type;location;lat;lon;timestamp;P1;durP1;ratioP1;P2;durP2;ratioP2
10882;SDS011;5494;51.796;10.952;2023-02-28T00:01:27;2.70;;;2.03;;
10882;SDS011;5494;51.796;10.952;2023-02-28T00:03:56;3.15;;;2.25;;
10882;SDS011;5494;51.796;10.952;2023-02-28T00:06:24;3.30;;;2.25;;
10882;SDS011;5494;51.796;10.952;2023-02-28T00:08:54;3.75;;;2.20;;
10882;SDS011;5494;51.796;10.952;2023-02-28T00:11:22;4.53;;;2.00;;
10882;SDS011;5494;51.796;10.952;2023-02-28T00:13:50;2.33;;;1.90;;
10882;SDS011;5494;51.796;10.952;2023-02-28T00:16:19;3.50;;;2.40;;
10882;SDS011;5494;51.796;10.952;2023-02-28T00:18:49;3.03;;;1.92;;
10882;SDS011;5494;51.796;10.952;2023-02-28T00:21:18;3.28;;;2.38;;
10882;SDS011;5494;51.796;10.952;2023-02-28T00:23:47;3.28;;;2.20;;
10882;SDS011;5494;51.796;10.952;2023-02-28T00:26:17;3.28;;;2.33;;
10882;SDS011;5494;51.796;10.952;2023-02-28T00:28:48;2.00;;;1.70;;
10882;SDS011;5494;51.796;10.952;2023-02-28T00:31:16;2.10;;;1.52;;
10882;SDS011;5494;51.796;10.952;2023-02-28T00:33:44;1.67;;;1.33;;
10882;SDS011;5494;51.796;10.952;2023-02-28T00:36:13;1.23;;;1.13;;
10882;SDS011;5494;51.796;10.952;2023-02-28T00:38:41;1.05;;;0.90;;
10882;SDS011;5494;51.796;10.952;2023-02-28T00:41:09;2.35;;;1.27;;
10882;SDS011;5494;51.796;10.952;2023-02-28T00:43:39;2.45;;;1.52;;
10882;SDS011;5494;51.796;10.952;2023-02-28T00:46:09;3.78;;;1.90;;
10882;SDS011;5494;51.796;10.952;2023-02-28T00:48:37;5.38;;;3.03;;
10882;SDS011;5494;51.796;10.952;2023-02-28T00:51:05;5.20;;;3.03;;
10882;SDS011;5494;51.796;10.952;2023-02-28T00:53:33;7.40;;;3.58;;
10882;SDS011;5494;51.796;10.952;2023-02-28T00:56:01;8.15;;;4.25;;
10882;SDS011;5494;51.796;10.952;2023-02-28T00:58:30;8.63;;;4.18;;
10882;SDS011;5494;51.796;10.952;2023-02-28T01:00:59;5.35;;;3.25;;
10882;SDS011;5494;51.796;10.952;2023-02-28T01:03:28;5.45;;;3.25;;
10882;SDS011;5494;51.796;10.952;2023-02-28T01:05:57;6.97;;;3.10;;
10882;SDS011;5494;51.796;10.952;2023-02-28T01:08:25;5.95;;;3.42;;
10882;SDS011;5494;51.796;10.952;2023-02-28T01:10:54;5.13;;;2.85;;
10882;SDS011;5494;51.796;10.952;2023-02-28T01:13:22;3.95;;;2.40;;
10882;SDS011;5494;51.796;10.952;2023-02-28T01:15:52;3.42;;;2.33;;
10882;SDS011;5494;51.796;10.952;2023-02-28T01:18:24;3.35;;;2.60;;
10882;SDS011;5494;51.796;10.952;2023-02-28T01:20:53;7.57;;;4.30;;
10882;SDS011;5494;51.796;10.952;2023-02-28T01:23:21;6.88;;;3.72;;
10882;SDS011;5494;51.796;10.952;2023-02-28T01:25:50;6.75;;;3.60;;
10882;SDS011;5494;51.796;10.952;2023-02-28T01:28:19;6.43;;;3.88;;
10882;SDS011;5494;51.796;10.952;2023-02-28T01:30:48;3.90;;;2.92;;
10882;SDS011;5494;51.796;10.952;2023-02-28T01:33:18;3.15;;;2.47;;
10882;SDS011;5494;51.796;10.952;2023-02-28T01:35:47;6.07;;;2.83;;
10882;SDS011;5494;51.796;10.952;2023-02-28T01:38:15;5.43;;;3.03;;
10882;SDS011;5494;51.796;10.952;2023-02-28T01:40:49;3.15;;;2.10;;
10882;SDS011;5494;51.796;10.952;2023-02-28T01:43:20;3.70;;;1.92;;
10882;SDS011;5494;51.796;10.952;2023-02-28T01:45:54;4.10;;;2.40;;
10882;SDS011;5494;51.796;10.952;2023-02-28T01:48:24;4.40;;;2.53;;
10882;SDS011;5494;51.796;10.952;2023-02-28T01:51:00;4.15;;;1.80;;
10882;SDS011;5494;51.796;10.952;2023-02-28T01:53:36;2.03;;;1.40;;
10882;SDS011;5494;51.796;10.952;2023-02-28T01:56:11;2.78;;;1.70;;
10882;SDS011;5494;51.796;10.952;2023-02-28T01:58:47;3.35;;;1.65;;
10882;SDS011;5494;51.796;10.952;2023-02-28T02:01:18;3.55;;;1.55;;
10882;SDS011;5494;51.796;10.952;2023-02-28T02:03:48;3.20;;;1.80;;
10882;SDS011;5494;51.796;10.952;2023-02-28T02:06:27;3.67;;;2.28;;
10882;SDS011;5494;51.796;10.952;2023-02-28T02:09:01;3.15;;;1.92;;
10882;SDS011;5494;51.796;10.952;2023-02-28T02:11:29;2.83;;;2.38;;
10882;SDS011;5494;51.796;10.952;2023-02-28T02:14:08;4.20;;;1.90;;
10882;SDS011;5494;51.796;10.952;2023-02-28T02:17:04;6.05;;;2.42;;
10882;SDS011;5494;51.796;10.952;2023-02-28T02:26:03;4.55;;;2.13;;
10882;SDS011;5494;51.796;10.952;2023-02-28T02:29:03;4.15;;;2.28;;
10882;SDS011;5494;51.796;10.952;2023-02-28T02:32:08;3.83;;;2.70;;
10882;SDS011;5494;51.796;10.952;2023-02-28T02:34:58;2.50;;;2.17;;
10882;SDS011;5494;51.796;10.952;2023-02-28T02:37:40;4.15;;;2.40;;
10882;SDS011;5494;51.796;10.952;2023-02-28T02:40:18;3.30;;;2.00;;
10882;SDS011;5494;51.796;10.952;2023-02-28T02:42:51;3.05;;;1.95;;
10882;SDS011;5494;51.796;10.952;2023-02-28T02:45:28;5.05;;;3.50;;
10882;SDS011;5494;51.796;10.952;2023-02-28T02:48:02;6.28;;;2.60;;
10882;SDS011;5494;51.796;10.952;2023-02-28T02:50:39;3.10;;;2.08;;
10882;SDS011;5494;51.796;10.952;2023-02-28T02:53:12;2.22;;;1.77;;
10882;SDS011;5494;51.796;10.952;2023-02-28T02:55:50;2.88;;;1.83;;
10882;SDS011;5494;51.796;10.952;2023-02-28T02:58:24;3.03;;;2.10;;
10882;SDS011;5494;51.796;10.952;2023-02-28T03:43:48;1.85;;;1.67;;
10882;SDS011;5494;51.796;10.952;2023-02-28T03:46:45;3.13;;;2.00;;
10882;SDS011;5494;51.796;10.952;2023-02-28T03:49:42;4.03;;;1.85;;
10882;SDS011;5494;51.796;10.952;2023-02-28T03:52:38;2.08;;;1.48;;
10882;SDS011;5494;51.796;10.952;2023-02-28T03:55:42;1.70;;;1.60;;
10882;SDS011;5494;51.796;10.952;2023-02-28T03:58:36;1.70;;;1.60;;
10882;SDS011;5494;51.796;10.952;2023-02-28T04:01:35;3.90;;;1.98;;
10882;SDS011;5494;51.796;10.952;2023-02-28T04:04:27;2.70;;;2.20;;
10882;SDS011;5494;51.796;10.952;2023-02-28T04:07:16;3.42;;;2.88;;
10882;SDS011;5494;51.796;10.952;2023-02-28T04:10:05;3.45;;;1.95;;
10882;SDS011;5494;51.796;10.952;2023-02-28T04:12:55;3.35;;;2.00;;
10882;SDS011;5494;51.796;10.952;2023-02-28T04:15:43;4.63;;;2.50;;
10882;SDS011;5494;51.796;10.952;2023-02-28T04:18:33;5.57;;;3.30;;
10882;SDS011;5494;51.796;10.952;2023-02-28T04:21:21;5.50;;;3.50;;
10882;SDS011;5494;51.796;10.952;2023-02-28T04:24:13;5.82;;;2.80;;
10882;SDS011;5494;51.796;10.952;2023-02-28T04:27:04;5.30;;;2.45;;
10882;SDS011;5494;51.796;10.952;2023-02-28T04:29:52;3.88;;;2.40;;
10882;SDS011;5494;51.796;10.952;2023-02-28T04:32:40;2.85;;;2.17;;
10882;SDS011;5494;51.796;10.952;2023-02-28T04:35:30;4.32;;;2.80;;
10882;SDS011;5494;51.796;10.952;2023-02-28T04:38:19;3.42;;;2.55;;
10882;SDS011;5494;51.796;10.952;2023-02-28T04:41:07;5.63;;;2.72;;
10882;SDS011;5494;51.796;10.952;2023-02-28T04:43:55;4.80;;;2.45;;
10882;SDS011;5494;51.796;10.952;2023-02-28T04:46:44;3.80;;;2.72;;
10882;SDS011;5494;51.796;10.952;2023-02-28T04:49:32;3.63;;;2.17;;
10882;SDS011;5494;51.796;10.952;2023-02-28T04:52:22;4.63;;;2.50;;
10882;SDS011;5494;51.796;10.952;2023-02-28T04:55:10;3.72;;;2.78;;
10882;SDS011;5494;51.796;10.952;2023-02-28T04:57:59;5.28;;;3.22;;
10882;SDS011;5494;51.796;10.952;2023-02-28T05:00:47;7.63;;;3.65;;
10882;SDS011;5494;51.796;10.952;2023-02-28T05:03:35;5.57;;;3.50;;
10882;SDS011;5494;51.796;10.952;2023-02-28T05:06:25;5.00;;;2.67;;
10882;SDS011;5494;51.796;10.952;2023-02-28T05:09:17;5.18;;;3.50;;
10882;SDS011;5494;51.796;10.952;2023-02-28T05:12:06;7.25;;;3.53;;
10882;SDS011;5494;51.796;10.952;2023-02-28T05:14:56;5.22;;;2.90;;
10882;SDS011;5494;51.796;10.952;2023-02-28T05:17:44;5.80;;;3.00;;
10882;SDS011;5494;51.796;10.952;2023-02-28T05:20:32;5.70;;;3.38;;
10882;SDS011;5494;51.796;10.952;2023-02-28T05:23:21;5.07;;;2.90;;
10882;SDS011;5494;51.796;10.952;2023-02-28T05:26:13;5.72;;;3.40;;
10882;SDS011;5494;51.796;10.952;2023-02-28T05:29:01;4.15;;;3.15;;
10882;SDS011;5494;51.796;10.952;2023-02-28T05:31:49;5.82;;;3.20;;
10882;SDS011;5494;51.796;10.952;2023-02-28T05:34:38;5.82;;;3.65;;
10882;SDS011;5494;51.796;10.952;2023-02-28T05:37:27;4.53;;;2.95;;
10882;SDS011;5494;51.796;10.952;2023-02-28T05:40:16;4.95;;;3.28;;
10882;SDS011;5494;51.796;10.952;2023-02-28T05:43:10;4.82;;;2.88;;
10882;SDS011;5494;51.796;10.952;2023-02-28T05:46:01;6.32;;;3.95;;
10882;SDS011;5494;51.796;10.952;2023-02-28T05:48:52;7.40;;;4.07;;
10882;SDS011;5494;51.796;10.952;2023-02-28T05:51:40;4.40;;;3.35;;
10882;SDS011;5494;51.796;10.952;2023-02-28T05:54:28;5.07;;;3.17;;
10882;SDS011;5494;51.796;10.952;2023-02-28T05:57:17;4.45;;;3.35;;
10882;SDS011;5494;51.796;10.952;2023-02-28T06:00:12;4.32;;;3.20;;
10882;SDS011;5494;51.796;10.952;2023-02-28T06:03:04;4.07;;;2.80;;
10882;SDS011;5494;51.796;10.952;2023-02-28T06:05:52;6.10;;;3.20;;
10882;SDS011;5494;51.796;10.952;2023-02-28T06:08:41;3.33;;;2.60;;
10882;SDS011;5494;51.796;10.952;2023-02-28T06:11:30;5.47;;;2.97;;
10882;SDS011;5494;51.796;10.952;2023-02-28T06:14:19;3.63;;;2.83;;
10882;SDS011;5494;51.796;10.952;2023-02-28T06:17:09;3.63;;;2.63;;
10882;SDS011;5494;51.796;10.952;2023-02-28T06:19:58;5.93;;;3.53;;
10882;SDS011;5494;51.796;10.952;2023-02-28T06:22:46;7.55;;;4.47;;
10882;SDS011;5494;51.796;10.952;2023-02-28T06:25:34;8.35;;;4.82;;
10882;SDS011;5494;51.796;10.952;2023-02-28T06:28:22;5.38;;;3.75;;
10882;SDS011;5494;51.796;10.952;2023-02-28T06:31:12;8.07;;;4.32;;
10882;SDS011;5494;51.796;10.952;2023-02-28T06:34:04;4.85;;;3.47;;
10882;SDS011;5494;51.796;10.952;2023-02-28T06:36:53;5.93;;;3.78;;
10882;SDS011;5494;51.796;10.952;2023-02-28T06:39:41;6.35;;;4.63;;
10882;SDS011;5494;51.796;10.952;2023-02-28T06:42:30;6.15;;;4.05;;
10882;SDS011;5494;51.796;10.952;2023-02-28T06:45:18;8.30;;;4.10;;
10882;SDS011;5494;51.796;10.952;2023-02-28T06:48:07;5.05;;;3.65;;
10882;SDS011;5494;51.796;10.952;2023-02-28T06:51:02;4.40;;;4.00;;
10882;SDS011;5494;51.796;10.952;2023-02-28T06:53:53;4.90;;;4.03;;
10882;SDS011;5494;51.796;10.952;2023-02-28T06:56:41;5.72;;;4.25;;
10882;SDS011;5494;51.796;10.952;2023-02-28T06:59:30;7.35;;;4.38;;
10882;SDS011;5494;51.796;10.952;2023-02-28T07:02:18;7.78;;;4.15;;
10882;SDS011;5494;51.796;10.952;2023-02-28T07:05:07;5.10;;;4.28;;
10882;SDS011;5494;51.796;10.952;2023-02-28T07:07:57;4.43;;;4.03;;
10882;SDS011;5494;51.796;10.952;2023-02-28T07:10:45;6.40;;;4.72;;
10882;SDS011;5494;51.796;10.952;2023-02-28T07:13:34;6.88;;;4.50;;
10882;SDS011;5494;51.796;10.952;2023-02-28T07:16:23;9.23;;;6.17;;
10882;SDS011;5494;51.796;10.952;2023-02-28T07:19:13;8.82;;;6.25;;
10882;SDS011;5494;51.796;10.952;2023-02-28T07:22:01;7.47;;;5.70;;
10882;SDS011;5494;51.796;10.952;2023-02-28T07:24:51;6.37;;;5.47;;
10882;SDS011;5494;51.796;10.952;2023-02-28T07:27:39;8.10;;;5.13;;
10882;SDS011;5494;51.796;10.952;2023-02-28T07:30:27;7.40;;;4.80;;
10882;SDS011;5494;51.796;10.952;2023-02-28T07:33:16;5.23;;;3.80;;
10882;SDS011;5494;51.796;10.952;2023-02-28T07:36:05;5.90;;;4.53;;
10882;SDS011;5494;51.796;10.952;2023-02-28T07:39:00;6.83;;;4.73;;
10882;SDS011;5494;51.796;10.952;2023-02-28T07:41:51;6.47;;;4.67;;
10882;SDS011;5494;51.796;10.952;2023-02-28T07:44:44;4.77;;;4.10;;
10882;SDS011;5494;51.796;10.952;2023-02-28T07:47:32;5.10;;;4.60;;
10882;SDS011;5494;51.796;10.952;2023-02-28T07:50:20;5.73;;;4.00;;
10882;SDS011;5494;51.796;10.952;2023-02-28T07:53:12;7.20;;;4.20;;
10882;SDS011;5494;51.796;10.952;2023-02-28T07:56:01;5.10;;;4.07;;
10882;SDS011;5494;51.796;10.952;2023-02-28T07:58:52;5.27;;;4.33;;
10882;SDS011;5494;51.796;10.952;2023-02-28T08:01:40;5.40;;;3.97;;
10882;SDS011;5494;51.796;10.952;2023-02-28T08:04:31;5.77;;;3.97;;
10882;SDS011;5494;51.796;10.952;2023-02-28T08:07:20;8.43;;;3.80;;
10882;SDS011;5494;51.796;10.952;2023-02-28T08:10:08;4.57;;;3.83;;
10882;SDS011;5494;51.796;10.952;2023-02-28T08:12:57;4.53;;;3.93;;
10882;SDS011;5494;51.796;10.952;2023-02-28T08:15:47;5.47;;;3.90;;
10882;SDS011;5494;51.796;10.952;2023-02-28T08:18:36;5.63;;;4.10;;
10882;SDS011;5494;51.796;10.952;2023-02-28T08:21:24;4.70;;;3.90;;
10882;SDS011;5494;51.796;10.952;2023-02-28T08:24:13;5.53;;;3.73;;
10882;SDS011;5494;51.796;10.952;2023-02-28T08:27:02;5.63;;;3.60;;
10882;SDS011;5494;51.796;10.952;2023-02-28T08:29:50;4.53;;;3.60;;
10882;SDS011;5494;51.796;10.952;2023-02-28T08:32:40;4.40;;;3.90;;
10882;SDS011;5494;51.796;10.952;2023-02-28T08:35:29;7.07;;;4.07;;
10882;SDS011;5494;51.796;10.952;2023-02-28T08:38:17;3.90;;;3.50;;
10882;SDS011;5494;51.796;10.952;2023-02-28T08:41:06;6.40;;;3.60;;
10882;SDS011;5494;51.796;10.952;2023-02-28T08:43:58;5.37;;;3.47;;
10882;SDS011;5494;51.796;10.952;2023-02-28T08:46:47;5.50;;;3.67;;
10882;SDS011;5494;51.796;10.952;2023-02-28T08:49:37;3.77;;;3.40;;
10882;SDS011;5494;51.796;10.952;2023-02-28T08:52:26;6.37;;;4.60;;
10882;SDS011;5494;51.796;10.952;2023-02-28T08:55:14;7.83;;;3.73;;
10882;SDS011;5494;51.796;10.952;2023-02-28T08:58:03;4.63;;;3.90;;
10882;SDS011;5494;51.796;10.952;2023-02-28T09:00:51;4.90;;;3.00;;
10882;SDS011;5494;51.796;10.952;2023-02-28T09:03:41;4.73;;;3.83;;
10882;SDS011;5494;51.796;10.952;2023-02-28T09:06:34;4.80;;;2.97;;
10882;SDS011;5494;51.796;10.952;2023-02-28T09:09:22;4.53;;;3.50;;
10882;SDS011;5494;51.796;10.952;2023-02-28T09:12:11;6.57;;;4.00;;
10882;SDS011;5494;51.796;10.952;2023-02-28T09:14:59;4.57;;;3.27;;
10882;SDS011;5494;51.796;10.952;2023-02-28T09:17:47;4.30;;;3.10;;
10882;SDS011;5494;51.796;10.952;2023-02-28T09:20:37;3.80;;;3.40;;
10882;SDS011;5494;51.796;10.952;2023-02-28T09:23:28;5.10;;;3.70;;
10882;SDS011;5494;51.796;10.952;2023-02-28T09:26:17;4.53;;;3.00;;
10882;SDS011;5494;51.796;10.952;2023-02-28T09:29:08;5.70;;;3.60;;
10882;SDS011;5494;51.796;10.952;2023-02-28T09:31:57;3.63;;;3.23;;
10882;SDS011;5494;51.796;10.952;2023-02-28T09:34:46;5.97;;;3.97;;
10882;SDS011;5494;51.796;10.952;2023-02-28T09:37:34;5.43;;;3.67;;
10882;SDS011;5494;51.796;10.952;2023-02-28T09:40:24;5.83;;;3.40;;
10882;SDS011;5494;51.796;10.952;2023-02-28T09:43:14;6.00;;;3.07;;
10882;SDS011;5494;51.796;10.952;2023-02-28T09:46:06;4.03;;;3.10;;
10882;SDS011;5494;51.796;10.952;2023-02-28T09:49:14;3.83;;;2.73;;
10882;SDS011;5494;51.796;10.952;2023-02-28T09:52:07;3.33;;;2.60;;
10882;SDS011;5494;51.796;10.952;2023-02-28T09:55:04;5.37;;;3.20;;
10882;SDS011;5494;51.796;10.952;2023-02-28T09:58:12;6.73;;;3.30;;
10882;SDS011;5494;51.796;10.952;2023-02-28T10:01:17;3.90;;;2.77;;
10882;SDS011;5494;51.796;10.952;2023-02-28T10:04:16;3.67;;;3.30;;
10882;SDS011;5494;51.796;10.952;2023-02-28T10:07:31;5.40;;;3.10;;
10882;SDS011;5494;51.796;10.952;2023-02-28T10:10:42;4.50;;;2.90;;
10882;SDS011;5494;51.796;10.952;2023-02-28T10:13:36;5.13;;;2.83;;
10882;SDS011;5494;51.796;10.952;2023-02-28T10:16:38;3.87;;;2.47;;
10882;SDS011;5494;51.796;10.952;2023-02-28T10:19:34;3.43;;;2.33;;
10882;SDS011;5494;51.796;10.952;2023-02-28T10:22:32;3.83;;;2.40;;
10882;SDS011;5494;51.796;10.952;2023-02-28T10:25:39;3.40;;;2.50;;
10882;SDS011;5494;51.796;10.952;2023-02-28T10:28:35;3.90;;;3.10;;
10882;SDS011;5494;51.796;10.952;2023-02-28T10:31:24;3.23;;;2.40;;
10882;SDS011;5494;51.796;10.952;2023-02-28T10:34:12;3.63;;;2.50;;
10882;SDS011;5494;51.796;10.952;2023-02-28T10:37:01;3.53;;;2.77;;
10882;SDS011;5494;51.796;10.952;2023-02-28T10:39:55;3.90;;;2.80;;
10882;SDS011;5494;51.796;10.952;2023-02-28T10:42:43;5.90;;;2.80;;
10882;SDS011;5494;51.796;10.952;2023-02-28T10:45:52;3.77;;;2.50;;
10882;SDS011;5494;51.796;10.952;2023-02-28T10:48:47;3.37;;;2.40;;
10882;SDS011;5494;51.796;10.952;2023-02-28T10:51:51;4.63;;;2.60;;
10882;SDS011;5494;51.796;10.952;2023-02-28T10:54:43;6.37;;;2.97;;
10882;SDS011;5494;51.796;10.952;2023-02-28T10:57:31;3.50;;;2.30;;
10882;SDS011;5494;51.796;10.952;2023-02-28T11:00:21;3.13;;;2.63;;
10882;SDS011;5494;51.796;10.952;2023-02-28T11:03:23;5.03;;;2.57;;
10882;SDS011;5494;51.796;10.952;2023-02-28T11:06:17;3.80;;;2.63;;
10882;SDS011;5494;51.796;10.952;2023-02-28T11:09:15;3.90;;;2.80;;
10882;SDS011;5494;51.796;10.952;2023-02-28T11:12:19;4.10;;;3.20;;
10882;SDS011;5494;51.796;10.952;2023-02-28T11:15:18;4.00;;;3.20;;
10882;SDS011;5494;51.796;10.952;2023-02-28T11:18:19;3.33;;;2.83;;
10882;SDS011;5494;51.796;10.952;2023-02-28T11:21:23;4.63;;;3.30;;
10882;SDS011;5494;51.796;10.952;2023-02-28T11:24:19;7.03;;;3.50;;
10882;SDS011;5494;51.796;10.952;2023-02-28T11:27:24;4.20;;;3.33;;
10882;SDS011;5494;51.796;10.952;2023-02-28T11:30:32;6.73;;;3.20;;
10882;SDS011;5494;51.796;10.952;2023-02-28T11:33:27;3.50;;;2.93;;
10882;SDS011;5494;51.796;10.952;2023-02-28T11:36:18;5.03;;;2.50;;
10882;SDS011;5494;51.796;10.952;2023-02-28T11:39:11;3.33;;;3.00;;
10882;SDS011;5494;51.796;10.952;2023-02-28T11:42:04;4.10;;;2.90;;
10882;SDS011;5494;51.796;10.952;2023-02-28T11:45:15;3.17;;;2.87;;
10882;SDS011;5494;51.796;10.952;2023-02-28T11:48:16;3.70;;;3.40;;
10882;SDS011;5494;51.796;10.952;2023-02-28T11:51:14;4.77;;;3.43;;
10882;SDS011;5494;51.796;10.952;2023-02-28T11:57:34;4.72;;;3.17;;
10882;SDS011;5494;51.796;10.952;2023-02-28T12:00:50;5.35;;;3.50;;
10882;SDS011;5494;51.796;10.952;2023-02-28T12:04:13;3.92;;;3.13;;
10882;SDS011;5494;51.796;10.952;2023-02-28T12:07:15;4.25;;;3.10;;
10882;SDS011;5494;51.796;10.952;2023-02-28T12:10:19;4.50;;;3.53;;
10882;SDS011;5494;51.796;10.952;2023-02-28T12:13:14;4.75;;;3.13;;
10882;SDS011;5494;51.796;10.952;2023-02-28T12:16:17;4.20;;;3.50;;
10882;SDS011;5494;51.796;10.952;2023-02-28T12:19:22;5.45;;;3.90;;
10882;SDS011;5494;51.796;10.952;2023-02-28T12:22:24;4.25;;;3.08;;
10882;SDS011;5494;51.796;10.952;2023-02-28T12:25:21;4.70;;;3.45;;
10882;SDS011;5494;51.796;10.952;2023-02-28T12:28:34;5.45;;;3.28;;
10882;SDS011;5494;51.796;10.952;2023-02-28T12:31:29;4.53;;;3.38;;
10882;SDS011;5494;51.796;10.952;2023-02-28T12:34:25;6.40;;;3.40;;
10882;SDS011;5494;51.796;10.952;2023-02-28T12:37:21;4.88;;;3.53;;
10882;SDS011;5494;51.796;10.952;2023-02-28T12:40:20;4.32;;;3.58;;
10882;SDS011;5494;51.796;10.952;2023-02-28T12:43:13;6.17;;;4.00;;
10882;SDS011;5494;51.796;10.952;2023-02-28T12:46:07;5.20;;;3.70;;
10882;SDS011;5494;51.796;10.952;2023-02-28T12:49:05;4.47;;;4.07;;
10882;SDS011;5494;51.796;10.952;2023-02-28T12:52:01;5.13;;;3.57;;
10882;SDS011;5494;51.796;10.952;2023-02-28T12:54:53;4.37;;;3.83;;
10882;SDS011;5494;51.796;10.952;2023-02-28T12:57:52;6.47;;;3.87;;
10882;SDS011;5494;51.796;10.952;2023-02-28T13:01:03;6.47;;;3.83;;
10882;SDS011;5494;51.796;10.952;2023-02-28T13:07:58;7.40;;;4.03;;
10882;SDS011;5494;51.796;10.952;2023-02-28T13:11:25;5.68;;;4.28;;
10882;SDS011;5494;51.796;10.952;2023-02-28T13:14:20;5.43;;;4.27;;
10882;SDS011;5494;51.796;10.952;2023-02-28T13:17:17;5.40;;;4.10;;
10882;SDS011;5494;51.796;10.952;2023-02-28T13:20:14;5.23;;;3.67;;
10882;SDS011;5494;51.796;10.952;2023-02-28T13:23:14;5.65;;;4.20;;
10882;SDS011;5494;51.796;10.952;2023-02-28T13:34:05;5.13;;;4.27;;
10882;SDS011;5494;51.796;10.952;2023-02-28T13:40:30;5.15;;;4.20;;
10882;SDS011;5494;51.796;10.952;2023-02-28T13:43:25;4.57;;;3.75;;
10882;SDS011;5494;51.796;10.952;2023-02-28T13:50:19;6.27;;;4.20;;
10882;SDS011;5494;51.796;10.952;2023-02-28T13:56:45;5.35;;;4.30;;
10882;SDS011;5494;51.796;10.952;2023-02-28T13:59:46;5.95;;;4.25;;
10882;SDS011;5494;51.796;10.952;2023-02-28T14:03:01;5.40;;;4.73;;
10882;SDS011;5494;51.796;10.952;2023-02-28T14:06:23;5.60;;;4.50;;
10882;SDS011;5494;51.796;10.952;2023-02-28T14:09:18;6.87;;;4.23;;
10882;SDS011;5494;51.796;10.952;2023-02-28T14:15:50;6.67;;;4.67;;
10882;SDS011;5494;51.796;10.952;2023-02-28T14:18:47;5.87;;;4.53;;
10882;SDS011;5494;51.796;10.952;2023-02-28T14:21:48;6.05;;;4.88;;
10882;SDS011;5494;51.796;10.952;2023-02-28T14:24:59;8.93;;;6.23;;
10882;SDS011;5494;51.796;10.952;2023-02-28T14:28:05;5.43;;;4.13;;
10882;SDS011;5494;51.796;10.952;2023-02-28T14:31:09;10.77;;;4.20;;
10882;SDS011;5494;51.796;10.952;2023-02-28T14:34:05;8.23;;;4.60;;
10882;SDS011;5494;51.796;10.952;2023-02-28T14:37:13;6.10;;;4.90;;
10882;SDS011;5494;51.796;10.952;2023-02-28T14:40:11;8.43;;;4.93;;
10882;SDS011;5494;51.796;10.952;2023-02-28T14:43:04;6.23;;;4.37;;
10882;SDS011;5494;51.796;10.952;2023-02-28T14:46:08;5.32;;;4.32;;
10882;SDS011;5494;51.796;10.952;2023-02-28T14:49:01;7.47;;;5.00;;
10882;SDS011;5494;51.796;10.952;2023-02-28T14:52:01;5.67;;;4.40;;
10882;SDS011;5494;51.796;10.952;2023-02-28T14:54:59;6.55;;;5.13;;
10882;SDS011;5494;51.796;10.952;2023-02-28T14:57:54;6.73;;;4.80;;
10882;SDS011;5494;51.796;10.952;2023-02-28T15:00:46;6.27;;;4.70;;
10882;SDS011;5494;51.796;10.952;2023-02-28T15:03:38;7.60;;;4.63;;
10882;SDS011;5494;51.796;10.952;2023-02-28T15:06:28;5.97;;;4.73;;
10882;SDS011;5494;51.796;10.952;2023-02-28T15:09:18;5.70;;;4.33;;
10882;SDS011;5494;51.796;10.952;2023-02-28T15:12:07;6.47;;;4.97;;
10882;SDS011;5494;51.796;10.952;2023-02-28T15:15:02;8.00;;;4.73;;
10882;SDS011;5494;51.796;10.952;2023-02-28T15:17:54;7.33;;;4.40;;
10882;SDS011;5494;51.796;10.952;2023-02-28T15:20:48;6.37;;;4.70;;
10882;SDS011;5494;51.796;10.952;2023-02-28T15:23:38;5.73;;;4.40;;
10882;SDS011;5494;51.796;10.952;2023-02-28T15:26:32;7.73;;;4.93;;
10882;SDS011;5494;51.796;10.952;2023-02-28T15:29:26;7.50;;;4.63;;
10882;SDS011;5494;51.796;10.952;2023-02-28T15:32:23;5.47;;;4.35;;
10882;SDS011;5494;51.796;10.952;2023-02-28T15:35:20;6.17;;;4.70;;
10882;SDS011;5494;51.796;10.952;2023-02-28T15:38:21;9.53;;;5.20;;
10882;SDS011;5494;51.796;10.952;2023-02-28T15:41:21;5.87;;;4.60;;
10882;SDS011;5494;51.796;10.952;2023-02-28T15:44:14;7.13;;;4.93;;
10882;SDS011;5494;51.796;10.952;2023-02-28T15:47:14;6.85;;;4.22;;
10882;SDS011;5494;51.796;10.952;2023-02-28T15:50:09;6.40;;;4.57;;
10882;SDS011;5494;51.796;10.952;2023-02-28T15:53:01;8.63;;;4.37;;
10882;SDS011;5494;51.796;10.952;2023-02-28T15:56:02;8.37;;;4.97;;
10882;SDS011;5494;51.796;10.952;2023-02-28T15:58:54;7.53;;;4.43;;
10882;SDS011;5494;51.796;10.952;2023-02-28T16:01:44;9.20;;;4.30;;
10882;SDS011;5494;51.796;10.952;2023-02-28T16:04:33;7.83;;;4.80;;
10882;SDS011;5494;51.796;10.952;2023-02-28T16:07:21;7.40;;;5.17;;
10882;SDS011;5494;51.796;10.952;2023-02-28T16:10:11;6.10;;;4.57;;
10882;SDS011;5494;51.796;10.952;2023-02-28T16:13:02;5.63;;;4.18;;
10882;SDS011;5494;51.796;10.952;2023-02-28T16:15:50;8.05;;;5.43;;
10882;SDS011;5494;51.796;10.952;2023-02-28T16:18:40;7.43;;;4.90;;
10882;SDS011;5494;51.796;10.952;2023-02-28T16:21:29;6.55;;;5.00;;
10882;SDS011;5494;51.796;10.952;2023-02-28T16:24:18;7.03;;;4.67;;
10882;SDS011;5494;51.796;10.952;2023-02-28T16:27:06;7.53;;;4.43;;
10882;SDS011;5494;51.796;10.952;2023-02-28T16:30:07;7.80;;;5.30;;
10882;SDS011;5494;51.796;10.952;2023-02-28T16:33:07;9.83;;;4.77;;
10882;SDS011;5494;51.796;10.952;2023-02-28T16:35:56;9.13;;;5.53;;
10882;SDS011;5494;51.796;10.952;2023-02-28T16:38:45;10.50;;;5.95;;
10882;SDS011;5494;51.796;10.952;2023-02-28T16:41:33;6.15;;;5.18;;
10882;SDS011;5494;51.796;10.952;2023-02-28T16:44:24;10.67;;;6.00;;
10882;SDS011;5494;51.796;10.952;2023-02-28T16:47:18;10.63;;;6.50;;
10882;SDS011;5494;51.796;10.952;2023-02-28T16:50:11;10.80;;;6.87;;
10882;SDS011;5494;51.796;10.952;2023-02-28T16:53:02;14.60;;;6.60;;
10882;SDS011;5494;51.796;10.952;2023-02-28T16:55:51;9.98;;;6.68;;
10882;SDS011;5494;51.796;10.952;2023-02-28T16:58:39;11.27;;;7.17;;
10882;SDS011;5494;51.796;10.952;2023-02-28T17:01:27;10.20;;;6.75;;
10882;SDS011;5494;51.796;10.952;2023-02-28T17:04:18;17.83;;;11.10;;
10882;SDS011;5494;51.796;10.952;2023-02-28T17:07:08;28.33;;;15.15;;
10882;SDS011;5494;51.796;10.952;2023-02-28T17:10:00;28.70;;;14.93;;
10882;SDS011;5494;51.796;10.952;2023-02-28T17:12:55;19.48;;;12.23;;
10882;SDS011;5494;51.796;10.952;2023-02-28T17:15:58;13.88;;;10.60;;
10882;SDS011;5494;51.796;10.952;2023-02-28T17:18:46;16.23;;;8.83;;
10882;SDS011;5494;51.796;10.952;2023-02-28T17:21:36;13.30;;;8.00;;
10882;SDS011;5494;51.796;10.952;2023-02-28T17:24:28;11.90;;;8.05;;
10882;SDS011;5494;51.796;10.952;2023-02-28T17:27:17;11.70;;;8.13;;
10882;SDS011;5494;51.796;10.952;2023-02-28T17:30:09;12.32;;;7.95;;
10882;SDS011;5494;51.796;10.952;2023-02-28T17:33:03;14.10;;;9.45;;
10882;SDS011;5494;51.796;10.952;2023-02-28T17:35:52;15.05;;;11.07;;
10882;SDS011;5494;51.796;10.952;2023-02-28T17:38:42;16.42;;;10.93;;
10882;SDS011;5494;51.796;10.952;2023-02-28T17:41:31;13.05;;;9.73;;
10882;SDS011;5494;51.796;10.952;2023-02-28T17:44:19;16.20;;;9.70;;
10882;SDS011;5494;51.796;10.952;2023-02-28T17:47:08;15.80;;;9.25;;
10882;SDS011;5494;51.796;10.952;2023-02-28T17:49:59;13.52;;;9.80;;
10882;SDS011;5494;51.796;10.952;2023-02-28T17:52:48;13.52;;;9.23;;
10882;SDS011;5494;51.796;10.952;2023-02-28T17:55:38;12.80;;;9.50;;
10882;SDS011;5494;51.796;10.952;2023-02-28T17:58:26;14.45;;;9.90;;
10882;SDS011;5494;51.796;10.952;2023-02-28T18:01:15;23.92;;;12.25;;
10882;SDS011;5494;51.796;10.952;2023-02-28T18:04:04;32.30;;;18.35;;
10882;SDS011;5494;51.796;10.952;2023-02-28T18:06:52;25.98;;;15.98;;
10882;SDS011;5494;51.796;10.952;2023-02-28T18:09:42;20.05;;;13.32;;
10882;SDS011;5494;51.796;10.952;2023-02-28T18:12:32;15.63;;;10.02;;
10882;SDS011;5494;51.796;10.952;2023-02-28T18:15:21;15.68;;;8.80;;
10882;SDS011;5494;51.796;10.952;2023-02-28T18:18:10;12.35;;;8.38;;